createdAt,value
2022-08-24T00:00:37.240Z,75447.72
2022-08-24T00:03:04.169Z,75438.09
2022-08-24T00:05:31.066Z,75441.94
2022-08-24T00:07:57.957Z,75445.78
2022-08-24T00:10:26.668Z,75445.78
2022-08-24T00:12:53.501Z,75449.63
2022-08-24T00:15:20.658Z,75455.41
2022-08-24T00:17:47.419Z,75453.50
2022-08-24T00:20:14.442Z,75451.56
2022-08-24T00:22:41.892Z,75449.63
2022-08-24T00:25:11.701Z,75455.41
2022-08-24T00:27:39.767Z,75453.50
2022-08-24T00:30:09.396Z,75453.50
2022-08-24T00:32:37.848Z,75457.34
2022-08-24T00:35:06.859Z,75455.41
2022-08-24T00:37:34.256Z,75457.34
2022-08-24T00:40:01.344Z,75453.50
2022-08-24T00:42:28.599Z,75457.34
2022-08-24T00:44:55.363Z,75453.50
2022-08-24T00:47:31.818Z,75457.34
2022-08-24T00:50:03.014Z,75453.50
2022-08-24T00:52:40.451Z,75445.78
2022-08-24T00:55:19.284Z,75449.63
2022-08-24T00:57:50.960Z,75453.50
2022-08-24T01:00:22.967Z,75457.34
2022-08-24T01:02:51.786Z,75457.34
2022-08-24T01:05:19.364Z,75461.19
2022-08-24T01:07:50.781Z,75461.19
2022-08-24T01:10:21.645Z,75461.19
2022-08-24T01:12:59.889Z,75465.06
2022-08-24T01:15:29.651Z,75465.06
2022-08-24T01:18:15.733Z,75466.97
2022-08-24T01:20:49.497Z,75466.97
2022-08-24T01:23:48.810Z,75468.91
2022-08-24T01:26:21.057Z,75470.81
2022-08-24T01:28:51.043Z,75472.75
2022-08-24T01:31:22.290Z,75474.69
2022-08-24T01:33:51.946Z,75474.69
2022-08-24T01:36:28.501Z,75470.81
2022-08-24T01:38:59.141Z,75476.59
2022-08-24T01:41:29.060Z,75472.75
2022-08-24T01:43:58.904Z,75480.47
2022-08-24T01:46:28.038Z,75480.47
2022-08-24T01:48:58.071Z,75474.69
2022-08-24T01:51:35.178Z,75480.47
2022-08-24T01:54:03.945Z,75478.53
2022-08-24T01:56:33.005Z,75480.47
2022-08-24T01:59:00.847Z,75482.38
2022-08-24T02:01:30.632Z,75480.47
2022-08-24T02:04:00.765Z,75476.59
2022-08-24T02:06:27.561Z,75472.75
2022-08-24T02:08:54.743Z,75476.59
2022-08-24T02:11:22.438Z,75474.69
2022-08-24T02:13:49.506Z,75472.75
2022-08-24T02:16:17.128Z,75470.81
2022-08-24T02:18:44.426Z,75472.75
2022-08-24T02:21:13.068Z,75472.75
2022-08-24T02:23:41.446Z,75472.75
2022-08-24T02:26:10.332Z,75472.75
2022-08-24T02:28:38.621Z,75480.47
2022-08-24T02:31:07.588Z,75476.59
2022-08-24T02:33:35.605Z,75484.31
2022-08-24T02:36:03.082Z,75492.03
2022-08-24T02:38:31.166Z,75488.16
2022-08-24T02:40:58.679Z,75492.03
2022-08-24T02:43:26.715Z,75501.66
2022-08-24T02:45:54.816Z,75499.72
2022-08-24T02:48:23.147Z,75499.72
2022-08-24T02:50:52.710Z,75493.94
2022-08-24T02:53:22.288Z,75499.72
2022-08-24T02:55:49.793Z,75499.72
2022-08-24T02:58:18.559Z,75505.50
2022-08-24T03:00:48.289Z,75515.13
2022-08-24T03:03:17.695Z,75519.00
2022-08-24T03:05:44.694Z,75530.56
2022-08-24T03:08:12.644Z,75538.25
2022-08-24T03:10:39.959Z,75545.97
2022-08-24T03:13:07.789Z,75553.66
2022-08-24T03:15:35.304Z,75561.38
2022-08-24T03:18:02.463Z,75563.31
2022-08-24T03:20:30.352Z,75569.06
2022-08-24T03:22:57.827Z,75565.22
2022-08-24T03:25:26.666Z,75567.16
2022-08-24T03:27:54.244Z,75565.22
2022-08-24T03:30:22.747Z,75572.94
2022-08-24T03:32:50.953Z,75576.78
2022-08-24T03:35:18.655Z,75580.63
2022-08-24T03:37:45.664Z,75588.34
2022-08-24T03:40:22.218Z,75584.50
2022-08-24T03:42:50.509Z,75590.28
2022-08-24T03:45:19.249Z,75592.19
2022-08-24T03:47:46.464Z,75596.03
2022-08-24T03:50:14.592Z,75594.13
2022-08-24T03:52:41.988Z,75599.91
2022-08-24T03:55:10.150Z,75596.03
2022-08-24T03:57:37.344Z,75605.69
2022-08-24T04:00:08.143Z,75607.59
2022-08-24T04:02:42.118Z,75599.91
2022-08-24T04:05:13.358Z,75601.81
2022-08-24T04:07:41.763Z,75599.91
2022-08-24T04:10:09.065Z,75596.03
2022-08-24T04:12:35.868Z,75584.50
2022-08-24T04:15:04.118Z,75580.63
2022-08-24T04:17:31.435Z,75569.06
2022-08-24T04:19:58.861Z,75553.66
2022-08-24T04:22:35.246Z,75511.28
2022-08-24T04:25:08.936Z,75474.69
2022-08-24T04:27:40.674Z,75445.78
2022-08-24T04:30:09.287Z,75426.53
2022-08-24T04:32:59.572Z,75318.66
2022-08-24T04:35:26.431Z,75272.41
2022-08-24T04:37:53.396Z,75214.63
2022-08-24T04:40:20.257Z,75172.25
2022-08-24T04:42:50.380Z,75170.31
2022-08-24T04:45:17.439Z,75106.75
2022-08-24T04:47:45.608Z,75068.25
2022-08-24T04:50:13.052Z,75025.84
2022-08-24T04:52:39.914Z,74923.78
2022-08-24T04:55:07.551Z,74902.59
2022-08-24T04:57:35.528Z,74864.06
2022-08-24T05:00:03.529Z,74679.16
2022-08-24T05:02:31.589Z,74819.78
2022-08-24T05:05:01.267Z,74673.41
2022-08-24T05:07:28.061Z,74686.88
2022-08-24T05:09:55.996Z,74829.41
2022-08-24T05:12:24.363Z,74713.84
2022-08-24T05:15:00.359Z,74686.88
2022-08-24T05:17:29.214Z,74690.72
2022-08-24T05:19:57.754Z,74667.63
2022-08-24T05:22:24.946Z,74667.63
2022-08-24T05:24:54.419Z,74671.47
2022-08-24T05:27:23.439Z,74636.81
2022-08-24T05:29:55.845Z,74683.03
2022-08-24T05:32:23.514Z,74704.22
2022-08-24T05:34:52.689Z,74667.63
2022-08-24T05:37:19.803Z,74605.97
2022-08-24T05:40:11.417Z,74552.06
2022-08-24T05:42:41.157Z,74480.81
2022-08-24T05:45:08.406Z,74411.47
2022-08-24T05:47:35.542Z,74444.22
2022-08-24T05:50:10.079Z,74347.91
2022-08-24T05:52:37.088Z,74432.66
2022-08-24T05:55:06.163Z,74502.00
2022-08-24T05:57:35.792Z,74407.63
2022-08-24T06:00:17.528Z,74471.16
2022-08-24T06:02:48.488Z,74357.56
2022-08-24T06:05:15.550Z,74438.44
2022-08-24T06:07:42.533Z,74436.50
2022-08-24T06:10:35.396Z,74384.50
2022-08-24T06:12:58.389Z,74596.34
2022-08-24T06:15:25.355Z,74580.94
2022-08-24T06:17:52.327Z,74669.53
2022-08-24T06:20:19.264Z,74555.91
2022-08-24T06:22:46.040Z,74563.63
2022-08-24T06:25:31.625Z,74602.13
2022-08-24T06:27:59.045Z,74642.56
2022-08-24T06:30:30.754Z,74582.88
2022-08-24T06:33:18.468Z,74448.06
2022-08-24T06:35:48.880Z,74490.44
2022-08-24T06:38:15.759Z,74534.72
2022-08-24T06:40:45.306Z,74490.44
2022-08-24T06:43:13.593Z,74463.47
2022-08-24T06:45:47.787Z,74299.78
2022-08-24T06:48:17.378Z,74332.50
2022-08-24T06:50:45.360Z,74301.69
2022-08-24T06:53:14.933Z,74440.34
2022-08-24T06:55:53.737Z,74432.66
2022-08-24T06:58:23.664Z,74276.66
2022-08-24T07:00:51.350Z,74282.44
2022-08-24T07:03:21.264Z,74303.63
2022-08-24T07:05:58.106Z,74347.91
2022-08-24T07:08:39.043Z,74455.75
2022-08-24T07:11:08.494Z,74351.78
2022-08-24T07:13:36.641Z,74330.59
2022-08-24T07:16:05.139Z,74421.09
2022-08-24T07:18:34.990Z,74446.13
2022-08-24T07:21:04.280Z,74438.44
2022-08-24T07:23:51.031Z,74523.16
2022-08-24T07:26:23.421Z,74517.38
2022-08-24T07:28:59.957Z,74553.97
2022-08-24T07:31:35.124Z,74453.84
2022-08-24T07:34:25.649Z,74432.66
2022-08-24T07:36:53.545Z,74444.22
2022-08-24T07:39:21.463Z,74282.44
2022-08-24T07:42:11.375Z,74313.25
2022-08-24T07:44:39.110Z,74357.56
2022-08-24T07:47:27.196Z,74459.63
2022-08-24T07:49:54.925Z,74465.41
2022-08-24T07:52:22.343Z,74409.53
2022-08-24T07:54:51.473Z,74428.81
2022-08-24T07:57:19.343Z,74609.84
2022-08-24T07:59:48.025Z,74575.16
2022-08-24T08:02:15.572Z,74469.25
2022-08-24T08:04:48.135Z,74527.03
2022-08-24T08:07:19.277Z,74594.44
2022-08-24T08:09:49.710Z,74640.66
2022-08-24T08:12:17.270Z,74659.91
2022-08-24T08:14:53.943Z,74471.16
2022-08-24T08:17:20.859Z,74476.94
2022-08-24T08:19:47.680Z,74605.97
2022-08-24T08:22:33.301Z,74644.50
2022-08-24T08:25:19.254Z,74590.56
2022-08-24T08:27:47.228Z,74588.66
2022-08-24T08:30:14.845Z,74571.31
2022-08-24T08:32:42.747Z,74602.13
2022-08-24T08:35:10.086Z,74588.66
2022-08-24T08:37:37.614Z,74667.63
2022-08-24T08:40:07.027Z,74586.72
2022-08-24T08:42:52.476Z,74552.06
2022-08-24T08:45:51.914Z,74544.34
2022-08-24T08:49:23.706Z,74527.03
2022-08-24T08:51:51.617Z,74656.06
2022-08-24T08:54:22.556Z,74629.09
2022-08-24T08:57:17.738Z,74552.06
2022-08-24T09:00:07.340Z,74482.72
2022-08-24T09:03:17.617Z,74388.38
2022-08-24T09:06:15.779Z,74396.06
2022-08-24T09:09:06.550Z,74401.84
2022-08-24T09:11:51.436Z,74319.03
2022-08-24T09:14:49.973Z,74386.44
2022-08-24T09:17:29.872Z,74421.09
2022-08-24T09:20:15.118Z,74423.03
2022-08-24T09:22:47.831Z,74367.19
2022-08-24T09:25:32.652Z,74317.09
2022-08-24T09:28:21.850Z,74305.56
2022-08-24T09:31:03.647Z,74336.38
2022-08-24T09:33:55.477Z,74405.69
2022-08-24T09:36:25.077Z,74430.72
2022-08-24T09:39:17.708Z,74542.44
2022-08-24T09:42:12.047Z,74421.09
2022-08-24T09:45:06.702Z,74359.47
2022-08-24T09:48:04.141Z,74317.09
2022-08-24T09:50:52.843Z,74403.78
2022-08-24T09:53:47.656Z,74436.50
2022-08-24T09:56:32.351Z,74324.81
2022-08-24T09:59:01.723Z,74301.69
2022-08-24T10:01:43.010Z,74475.03
2022-08-24T10:04:32.154Z,74413.41
2022-08-24T10:07:47.315Z,74382.59
2022-08-24T10:10:52.404Z,74382.59
2022-08-24T10:13:28.335Z,74363.31
2022-08-24T10:16:00.967Z,74290.16
2022-08-24T10:18:35.301Z,74299.78
2022-08-24T10:21:15.197Z,74378.72
2022-08-24T10:24:07.728Z,74351.78
2022-08-24T10:26:37.394Z,74346.00
2022-08-24T10:29:44.647Z,74251.63
2022-08-24T10:32:33.861Z,74211.19
2022-08-24T10:35:17.303Z,74374.88
2022-08-24T10:38:18.433Z,74378.72
2022-08-24T10:41:09.316Z,74334.44
2022-08-24T10:44:13.745Z,74311.34
2022-08-24T10:46:58.821Z,74309.41
2022-08-24T10:49:34.790Z,74243.94
2022-08-24T10:52:07.343Z,74263.19
2022-08-24T10:54:36.340Z,74232.38
2022-08-24T10:57:16.596Z,74369.09
2022-08-24T11:00:00.730Z,74336.38
2022-08-24T11:02:37.102Z,74342.16
2022-08-24T11:05:10.573Z,74332.50
2022-08-24T11:07:56.487Z,74380.66
2022-08-24T11:10:30.582Z,74330.59
2022-08-24T11:13:18.715Z,74346.00
2022-08-24T11:15:58.009Z,74415.31
2022-08-24T11:18:25.302Z,74444.22
2022-08-24T11:20:55.110Z,74326.75
2022-08-24T11:23:42.869Z,74259.34
2022-08-24T11:26:20.104Z,74351.78
2022-08-24T11:28:53.960Z,74371.03
2022-08-24T11:31:32.720Z,74444.22
2022-08-24T11:34:08.152Z,74369.09
2022-08-24T11:36:38.592Z,74398.00
2022-08-24T11:39:35.615Z,74355.63
2022-08-24T11:42:14.628Z,74417.25
2022-08-24T11:45:09.780Z,74442.28
2022-08-24T11:48:07.203Z,74394.13
2022-08-24T11:50:52.820Z,74322.88
2022-08-24T11:53:47.503Z,74297.84
2022-08-24T11:56:25.991Z,74236.22
2022-08-24T11:58:57.187Z,74301.69
2022-08-24T12:01:34.985Z,74315.19
2022-08-24T12:04:31.509Z,74276.66
2022-08-24T12:07:04.114Z,74282.44
2022-08-24T12:09:49.680Z,74334.44
2022-08-24T12:12:29.131Z,74344.06
2022-08-24T12:15:17.396Z,74313.25
2022-08-24T12:18:00.950Z,74294.00
2022-08-24T12:20:48.552Z,74336.38
2022-08-24T12:23:20.021Z,74320.97
2022-08-24T12:26:03.437Z,74317.09
2022-08-24T12:28:42.275Z,74274.75
2022-08-24T12:31:18.102Z,74286.28
2022-08-24T12:33:58.625Z,74270.88
2022-08-24T12:36:30.905Z,74378.72
2022-08-24T12:39:15.852Z,74390.28
2022-08-24T12:41:54.768Z,74434.59
2022-08-24T12:44:25.477Z,74378.72
2022-08-24T12:46:54.414Z,74267.03
2022-08-24T12:49:31.103Z,74255.47
2022-08-24T12:52:34.542Z,74224.69
2022-08-24T12:55:10.415Z,74294.00
2022-08-24T12:57:55.872Z,74232.38
2022-08-24T13:00:28.987Z,74216.97
2022-08-24T13:03:06.353Z,74176.53
2022-08-24T13:05:45.655Z,74216.97
2022-08-24T13:08:32.201Z,74257.41
2022-08-24T13:11:29.683Z,74236.22
2022-08-24T13:14:14.796Z,74216.97
2022-08-24T13:16:56.790Z,74242.00
2022-08-24T13:19:23.760Z,74261.25
2022-08-24T13:21:55.320Z,74320.97
2022-08-24T13:24:28.003Z,74317.09
2022-08-24T13:27:11.365Z,74320.97
2022-08-24T13:29:41.965Z,74280.53
2022-08-24T13:32:20.453Z,74224.69
2022-08-24T13:34:50.599Z,74274.75
2022-08-24T13:37:22.645Z,74320.97
2022-08-24T13:39:58.724Z,74313.25
2022-08-24T13:42:43.675Z,74294.00
2022-08-24T13:45:46.309Z,74282.44
2022-08-24T13:48:48.018Z,74301.69
2022-08-24T13:51:29.853Z,74251.63
2022-08-24T13:54:05.526Z,74193.88
2022-08-24T13:57:06.136Z,74201.56
2022-08-24T13:59:55.920Z,74213.13
2022-08-24T14:02:31.185Z,74305.56
2022-08-24T14:05:40.211Z,74267.03
2022-08-24T14:08:18.542Z,74301.69
2022-08-24T14:11:03.344Z,74282.44
2022-08-24T14:13:35.968Z,74284.38
2022-08-24T14:16:40.499Z,74263.19
2022-08-24T14:19:28.473Z,74290.16
2022-08-24T14:22:19.945Z,74303.63
2022-08-24T14:24:54.501Z,74313.25
2022-08-24T14:27:42.725Z,74319.03
2022-08-24T14:30:33.903Z,74294.00
2022-08-24T14:33:00.581Z,74301.69
2022-08-24T14:35:36.440Z,74267.03
2022-08-24T14:38:24.163Z,74278.59
2022-08-24T14:40:57.821Z,74274.75
2022-08-24T14:43:31.290Z,74324.81
2022-08-24T14:46:23.006Z,74344.06
2022-08-24T14:48:50.084Z,74340.22
2022-08-24T14:51:25.322Z,74332.50
2022-08-24T14:54:15.724Z,74326.75
2022-08-24T14:57:10.112Z,74299.78
2022-08-24T15:00:06.352Z,74336.38
2022-08-24T15:02:51.898Z,74355.63
2022-08-24T15:05:34.957Z,74363.31
2022-08-24T15:08:05.893Z,74363.31
2022-08-24T15:10:57.231Z,74388.38
2022-08-24T15:13:37.954Z,74398.00
2022-08-24T15:16:14.714Z,74359.47
2022-08-24T15:18:44.742Z,74347.91
2022-08-24T15:21:48.965Z,74374.88
2022-08-24T15:24:48.077Z,74378.72
2022-08-24T15:27:34.143Z,74371.03
2022-08-24T15:30:05.672Z,74398.00
2022-08-24T15:32:49.399Z,74396.06
2022-08-24T15:35:43.837Z,74378.72
2022-08-24T15:38:34.060Z,74386.44
2022-08-24T15:41:11.345Z,74398.00
2022-08-24T15:43:56.939Z,74374.88
2022-08-24T15:46:35.026Z,74405.69
2022-08-24T15:49:03.954Z,74417.25
2022-08-24T15:51:55.887Z,74426.88
2022-08-24T15:54:24.782Z,74413.41
2022-08-24T15:56:58.772Z,74436.50
2022-08-24T15:59:31.315Z,74424.94
2022-08-24T16:02:29.713Z,74432.66
2022-08-24T16:05:02.614Z,74446.13
2022-08-24T16:07:35.501Z,74442.28
2022-08-24T16:10:10.319Z,74457.69
2022-08-24T16:12:38.084Z,74459.63
2022-08-24T16:15:19.932Z,74455.75
2022-08-24T16:17:51.540Z,74448.06
2022-08-24T16:20:24.486Z,74444.22
2022-08-24T16:23:00.560Z,74463.47
2022-08-24T16:25:40.996Z,74469.25
2022-08-24T16:28:21.829Z,74467.31
2022-08-24T16:31:07.474Z,74490.44
2022-08-24T16:33:43.127Z,74515.47
2022-08-24T16:36:15.050Z,74511.63
2022-08-24T16:38:49.115Z,74511.63
2022-08-24T16:41:19.799Z,74532.81
2022-08-24T16:43:47.142Z,74525.09
2022-08-24T16:46:20.324Z,74534.72
2022-08-24T16:48:47.613Z,74540.50
2022-08-24T16:51:14.461Z,74544.34
2022-08-24T16:53:41.208Z,74515.47
2022-08-24T16:56:08.915Z,74502.00
2022-08-24T16:58:37.324Z,74453.84
2022-08-24T17:01:05.283Z,74453.84
2022-08-24T17:03:32.524Z,74467.31
2022-08-24T17:05:59.459Z,74455.75
2022-08-24T17:08:28.548Z,74330.59
2022-08-24T17:10:55.464Z,74336.38
2022-08-24T17:13:46.148Z,74263.19
2022-08-24T17:16:12.140Z,74211.19
2022-08-24T17:18:39.371Z,74001.28
2022-08-24T17:21:06.277Z,73837.63
2022-08-24T17:23:34.331Z,74070.63
2022-08-24T17:26:03.589Z,74136.09
2022-08-24T17:28:31.457Z,74174.59
2022-08-24T17:30:58.823Z,74224.69
2022-08-24T17:33:25.651Z,74290.16
2022-08-24T17:35:55.237Z,74347.91
2022-08-24T17:38:22.310Z,74386.44
2022-08-24T17:40:49.914Z,74270.88
2022-08-24T17:43:16.793Z,74315.19
2022-08-24T17:45:43.977Z,74382.59
2022-08-24T17:48:16.377Z,74453.84
2022-08-24T17:50:43.235Z,74513.53
2022-08-24T17:53:10.157Z,74575.16
2022-08-24T17:55:37.322Z,74613.69
2022-08-24T17:58:04.178Z,74648.34
2022-08-24T18:00:31.163Z,74675.31
2022-08-24T18:02:58.003Z,74702.28
2022-08-24T18:05:24.780Z,74721.53
2022-08-24T18:07:54.779Z,74740.81
2022-08-24T18:10:32.388Z,74752.34
2022-08-24T18:13:01.663Z,74763.91
2022-08-24T18:15:35.419Z,74769.69
2022-08-24T18:18:08.707Z,74783.16
2022-08-24T18:20:38.736Z,74790.88
2022-08-24T18:23:05.660Z,74802.44
2022-08-24T18:25:44.058Z,74823.63
2022-08-24T18:28:11.217Z,74829.41
2022-08-24T18:30:40.669Z,74846.72
2022-08-24T18:33:08.522Z,74860.22
2022-08-24T18:35:35.529Z,74873.69
2022-08-24T18:38:02.409Z,74875.63
2022-08-24T18:40:33.204Z,74887.19
2022-08-24T18:43:01.982Z,74891.03
2022-08-24T18:45:31.772Z,74898.72
2022-08-24T18:47:58.793Z,74894.88
2022-08-24T18:50:28.807Z,74902.59
2022-08-24T18:52:57.703Z,74906.44
2022-08-24T18:55:25.664Z,74910.28
2022-08-24T18:57:53.029Z,74921.84
2022-08-24T19:00:20.177Z,74921.84
2022-08-24T19:02:47.477Z,74918.00
2022-08-24T19:05:19.122Z,74925.69
2022-08-24T19:07:48.109Z,74923.78
2022-08-24T19:10:18.969Z,74933.41
2022-08-24T19:12:49.295Z,74937.25
2022-08-24T19:15:32.379Z,74935.34
2022-08-24T19:18:05.547Z,74933.41
2022-08-24T19:20:33.873Z,74929.56
2022-08-24T19:23:07.431Z,74918.00
2022-08-24T19:25:36.261Z,74912.22
2022-08-24T19:28:04.255Z,74927.63
2022-08-24T19:30:31.161Z,74925.69
2022-08-24T19:32:58.771Z,74921.84
2022-08-24T19:35:25.738Z,74925.69
2022-08-24T19:37:52.546Z,74931.47
2022-08-24T19:40:22.816Z,74937.25
2022-08-24T19:42:53.593Z,74918.00
2022-08-24T19:45:44.444Z,74929.56
2022-08-24T19:48:12.985Z,74919.91
2022-08-24T19:50:40.571Z,74931.47
2022-08-24T19:53:08.224Z,74933.41
2022-08-24T19:55:35.004Z,74929.56
2022-08-24T19:58:20.149Z,74941.09
2022-08-24T20:01:01.908Z,74952.66
2022-08-24T20:03:28.752Z,74956.53
2022-08-24T20:05:55.671Z,74954.59
2022-08-24T20:08:22.439Z,74954.59
2022-08-24T20:10:49.837Z,74948.81
2022-08-24T20:13:17.092Z,74948.81
2022-08-24T20:15:43.921Z,74952.66
2022-08-24T20:18:11.089Z,74960.38
2022-08-24T20:20:37.960Z,74952.66
2022-08-24T20:23:06.383Z,74958.44
2022-08-24T20:25:39.593Z,74960.38
2022-08-24T20:30:55.596Z,74950.75
2022-08-24T20:33:23.848Z,74964.22
2022-08-24T20:35:51.041Z,74964.22
2022-08-24T20:38:20.073Z,74970.00
2022-08-24T20:40:47.695Z,74973.84
2022-08-24T20:43:14.733Z,74971.94
2022-08-24T20:45:41.990Z,74970.00
2022-08-24T20:48:12.175Z,74970.00
2022-08-24T20:50:43.452Z,74970.00
2022-08-24T20:53:11.610Z,74968.06
2022-08-24T20:55:42.216Z,74964.22
2022-08-24T20:58:09.957Z,74964.22
2022-08-24T21:00:37.440Z,74968.06
2022-08-24T21:03:05.067Z,74958.44
2022-08-24T21:05:32.382Z,74964.22
2022-08-24T21:07:59.154Z,74966.16
2022-08-24T21:10:27.358Z,74973.84
2022-08-24T21:12:54.742Z,74979.63
2022-08-24T21:15:23.315Z,74983.47
2022-08-24T21:17:50.548Z,74987.34
2022-08-24T21:20:18.370Z,74987.34
2022-08-24T21:22:46.258Z,74995.03
2022-08-24T21:25:14.718Z,74991.19
2022-08-24T21:27:44.213Z,74993.13
2022-08-24T21:30:16.232Z,74998.91
2022-08-24T21:33:01.880Z,75002.75
2022-08-24T21:35:28.789Z,75002.75
2022-08-24T21:37:56.270Z,75006.59
2022-08-24T21:40:23.442Z,75010.44
2022-08-24T21:42:50.294Z,75006.59
2022-08-24T21:45:19.031Z,75006.59
2022-08-24T21:47:45.871Z,75008.53
2022-08-24T21:50:14.208Z,75008.53
2022-08-24T21:52:41.687Z,75000.81
2022-08-24T21:55:12.929Z,75000.81
2022-08-24T21:57:41.460Z,75002.75
2022-08-24T22:00:14.420Z,75002.75
2022-08-24T22:02:41.876Z,75002.75
2022-08-24T22:05:09.286Z,75014.31
2022-08-24T22:07:36.791Z,75016.22
2022-08-24T22:10:04.707Z,75014.31
2022-08-24T22:12:31.488Z,75018.16
2022-08-24T22:14:58.246Z,75018.16
2022-08-24T22:17:25.006Z,75010.44
2022-08-24T22:19:51.840Z,75010.44
2022-08-24T22:22:18.625Z,75006.59
2022-08-24T22:24:45.409Z,75002.75
2022-08-24T22:27:12.291Z,75004.66
2022-08-24T22:29:39.454Z,75000.81
2022-08-24T22:32:06.303Z,74996.97
2022-08-24T22:34:33.106Z,74989.25
2022-08-24T22:37:01.578Z,74996.97
2022-08-24T22:39:28.795Z,75000.81
2022-08-24T22:41:55.853Z,75002.75
2022-08-24T22:44:22.894Z,74998.91
2022-08-24T22:46:55.239Z,74995.03
2022-08-24T22:49:25.234Z,74996.97
2022-08-24T22:51:52.325Z,75004.66
2022-08-24T22:54:21.461Z,75008.53
2022-08-24T22:56:51.745Z,75018.16
2022-08-24T22:59:22.019Z,75014.31
2022-08-24T23:01:51.245Z,75022.00
2022-08-24T23:04:22.062Z,75020.09
2022-08-24T23:06:49.247Z,75018.16
2022-08-24T23:09:16.256Z,75027.78
2022-08-24T23:11:43.714Z,75031.63
2022-08-24T23:14:12.220Z,75033.56
2022-08-24T23:16:44.650Z,75033.56
2022-08-24T23:19:30.564Z,75039.34
2022-08-24T23:21:57.319Z,75041.28
2022-08-24T23:24:24.420Z,75045.13
2022-08-24T23:26:51.216Z,75041.28
2022-08-24T23:29:18.475Z,75041.28
2022-08-24T23:31:46.236Z,75047.03
2022-08-24T23:34:15.119Z,75045.13
2022-08-24T23:36:43.159Z,75048.97
2022-08-24T23:39:10.719Z,75048.97
2022-08-24T23:41:39.648Z,75056.69
2022-08-24T23:44:13.594Z,75052.81
2022-08-24T23:46:40.739Z,75052.81
2022-08-24T23:49:08.464Z,75052.81
2022-08-24T23:51:36.461Z,75056.69
2022-08-24T23:54:05.959Z,75056.69
2022-08-24T23:56:35.737Z,75064.38
2022-08-24T23:59:07.505Z,75064.38
